Aérodrome :
LOGIN :

S'inscrire | Disclaimer

   EN    FR    IT 

 










Légende :    VFR   VFR Marginal   IFR   IFR Intensif   IFR Très Intensif
Visi : 
Plafond : 
>= 8 km
>= 3000ft
5 à 8 km
1000 à 3000 ft
1500m à 5 km
500 à 1000 ft
800 à 1500m
200 à 500 ft
< 800m
< 200 ft
Symboles :   Orages  Brouillard  Fortes neiges  Fortes précipitations  Vent > 20 kt
SIGMETs :   Divers  Orages  Givrage  Turbulence  Onde Orograph.  Cendres Volcan.







- Altitude de l'aérodrome : 18 ft
- Code IATA : AJA
- Voir les cartes d'approche


LFKJ - Ajaccio

DERNIER METAR :
  • 211000Z 23009KT 9999 FEW016 27/20 Q1017 NOSIG

METARs EXPIRÉS :
  • 210930Z 24008KT 9999 FEW016 26/20 Q1017 NOSIG
  • 210900Z 23006KT 9999 FEW016 26/20 Q1017 NOSIG
  • 210830Z 25004KT 220V280 CAVOK 25/18 Q1017 NOSIG
  • 210800Z 25003KT 210V280 CAVOK 25/15 Q1017 NOSIG
  • 210730Z VRB02KT CAVOK 25/15 Q1017 NOSIG

TAF TAF LFKJ
Valide du 21 à 09h jusqu'au 22 à 09h UTC


210800Z 2109/2209 22010KT CAVOK
BECMG 2118/2120 04005KT
BECMG 2206/2208 22008KT
ATIS : +33 4 95 23 59 85
Pas de NOTAMs connus pour ce terrain.



MET'MAP, la Météo Aéronautique d'un coup d'oeil ! - Copyright ORBIFLY Décembre 2007 - Disclaimer

ORBIFLY MET'MAP TEAM :

Programmation & Développement : Alexandra Zaïnal
Conception & Développement : Baudouin d'Aumeries
Co-Programmation & Développement : Marc-Olivier Méhu
Soutien technique & logistique : Manuel Goepfert

Contact : metmap@orbifly.com




SOURCES & CREDITS :

   NOAA